sensor_id;sensor_type;location;lat;lon;timestamp;P1;durP1;ratioP1;P2;durP2;ratioP2
37299;SDS011;23184;51.902;12.836;2023-05-10T00:02:03;6.68;;;3.35;;
37299;SDS011;23184;51.902;12.836;2023-05-10T00:04:29;7.10;;;3.40;;
37299;SDS011;23184;51.902;12.836;2023-05-10T00:06:54;7.85;;;3.13;;
37299;SDS011;23184;51.902;12.836;2023-05-10T00:09:20;7.30;;;3.75;;
37299;SDS011;23184;51.902;12.836;2023-05-10T00:11:45;5.93;;;3.30;;
37299;SDS011;23184;51.902;12.836;2023-05-10T00:14:11;8.00;;;3.35;;
37299;SDS011;23184;51.902;12.836;2023-05-10T00:16:36;8.20;;;3.28;;
37299;SDS011;23184;51.902;12.836;2023-05-10T00:19:02;6.05;;;3.47;;
37299;SDS011;23184;51.902;12.836;2023-05-10T00:21:27;6.95;;;3.70;;
37299;SDS011;23184;51.902;12.836;2023-05-10T00:23:53;5.97;;;3.75;;
37299;SDS011;23184;51.902;12.836;2023-05-10T00:26:19;7.70;;;3.58;;
37299;SDS011;23184;51.902;12.836;2023-05-10T00:28:45;7.25;;;3.55;;
37299;SDS011;23184;51.902;12.836;2023-05-10T00:31:10;6.60;;;3.55;;
37299;SDS011;23184;51.902;12.836;2023-05-10T00:33:36;5.47;;;3.40;;
37299;SDS011;23184;51.902;12.836;2023-05-10T00:36:01;8.43;;;3.65;;
37299;SDS011;23184;51.902;12.836;2023-05-10T00:38:27;6.60;;;3.40;;
37299;SDS011;23184;51.902;12.836;2023-05-10T00:40:53;5.90;;;3.47;;
37299;SDS011;23184;51.902;12.836;2023-05-10T00:43:18;7.72;;;3.55;;
37299;SDS011;23184;51.902;12.836;2023-05-10T00:45:44;6.40;;;3.40;;
37299;SDS011;23184;51.902;12.836;2023-05-10T00:48:09;5.18;;;3.35;;
37299;SDS011;23184;51.902;12.836;2023-05-10T00:50:35;5.90;;;3.58;;
37299;SDS011;23184;51.902;12.836;2023-05-10T00:53:01;5.80;;;3.75;;
37299;SDS011;23184;51.902;12.836;2023-05-10T00:55:27;5.85;;;4.13;;
37299;SDS011;23184;51.902;12.836;2023-05-10T00:57:53;6.70;;;3.47;;
37299;SDS011;23184;51.902;12.836;2023-05-10T01:00:18;6.90;;;3.90;;
37299;SDS011;23184;51.902;12.836;2023-05-10T01:02:45;5.13;;;3.65;;
37299;SDS011;23184;51.902;12.836;2023-05-10T01:05:11;6.95;;;4.05;;
37299;SDS011;23184;51.902;12.836;2023-05-10T01:07:37;7.28;;;3.72;;
37299;SDS011;23184;51.902;12.836;2023-05-10T01:10:03;8.55;;;3.72;;
37299;SDS011;23184;51.902;12.836;2023-05-10T01:12:29;6.53;;;3.45;;
37299;SDS011;23184;51.902;12.836;2023-05-10T01:14:55;10.40;;;4.03;;
37299;SDS011;23184;51.902;12.836;2023-05-10T01:17:20;9.63;;;3.92;;
37299;SDS011;23184;51.902;12.836;2023-05-10T01:19:47;8.07;;;3.53;;
37299;SDS011;23184;51.902;12.836;2023-05-10T01:43:51;7.18;;;4.05;;
37299;SDS011;23184;51.902;12.836;2023-05-10T01:46:41;6.53;;;3.30;;
37299;SDS011;23184;51.902;12.836;2023-05-10T01:49:26;5.95;;;3.90;;
37299;SDS011;23184;51.902;12.836;2023-05-10T01:51:57;6.43;;;3.78;;
37299;SDS011;23184;51.902;12.836;2023-05-10T01:54:26;7.15;;;3.40;;
37299;SDS011;23184;51.902;12.836;2023-05-10T01:56:59;4.93;;;3.03;;
37299;SDS011;23184;51.902;12.836;2023-05-10T01:59:29;6.28;;;3.47;;
37299;SDS011;23184;51.902;12.836;2023-05-10T02:02:01;6.80;;;3.43;;
37299;SDS011;23184;51.902;12.836;2023-05-10T02:04:27;7.00;;;3.65;;
37299;SDS011;23184;51.902;12.836;2023-05-10T02:06:53;6.10;;;3.53;;
37299;SDS011;23184;51.902;12.836;2023-05-10T02:09:20;4.80;;;3.20;;
37299;SDS011;23184;51.902;12.836;2023-05-10T02:11:48;6.68;;;3.80;;
37299;SDS011;23184;51.902;12.836;2023-05-10T02:14:15;5.22;;;3.38;;
37299;SDS011;23184;51.902;12.836;2023-05-10T02:16:41;5.75;;;3.20;;
37299;SDS011;23184;51.902;12.836;2023-05-10T02:19:09;6.10;;;3.75;;
37299;SDS011;23184;51.902;12.836;2023-05-10T02:21:37;5.75;;;3.53;;
37299;SDS011;23184;51.902;12.836;2023-05-10T02:24:05;5.38;;;3.10;;
37299;SDS011;23184;51.902;12.836;2023-05-10T02:26:31;5.60;;;3.90;;
37299;SDS011;23184;51.902;12.836;2023-05-10T02:28:58;7.25;;;3.88;;
37299;SDS011;23184;51.902;12.836;2023-05-10T02:31:28;10.05;;;4.53;;
37299;SDS011;23184;51.902;12.836;2023-05-10T02:33:56;6.25;;;3.30;;
37299;SDS011;23184;51.902;12.836;2023-05-10T02:36:23;5.32;;;3.42;;
37299;SDS011;23184;51.902;12.836;2023-05-10T02:38:52;8.07;;;3.75;;
37299;SDS011;23184;51.902;12.836;2023-05-10T02:41:18;9.20;;;3.65;;
37299;SDS011;23184;51.902;12.836;2023-05-10T02:43:47;5.15;;;3.17;;
37299;SDS011;23184;51.902;12.836;2023-05-10T02:46:16;5.57;;;3.53;;
37299;SDS011;23184;51.902;12.836;2023-05-10T02:48:41;6.35;;;3.42;;
37299;SDS011;23184;51.902;12.836;2023-05-10T02:51:07;5.28;;;3.63;;
37299;SDS011;23184;51.902;12.836;2023-05-10T02:53:34;5.10;;;3.15;;
37299;SDS011;23184;51.902;12.836;2023-05-10T02:56:03;5.68;;;3.20;;
37299;SDS011;23184;51.902;12.836;2023-05-10T02:58:32;6.43;;;3.28;;
37299;SDS011;23184;51.902;12.836;2023-05-10T03:00:57;6.50;;;3.20;;
37299;SDS011;23184;51.902;12.836;2023-05-10T03:03:24;7.50;;;3.35;;
37299;SDS011;23184;51.902;12.836;2023-05-10T03:05:49;6.47;;;3.25;;
37299;SDS011;23184;51.902;12.836;2023-05-10T03:08:15;5.03;;;3.08;;
37299;SDS011;23184;51.902;12.836;2023-05-10T03:10:42;4.45;;;2.80;;
37299;SDS011;23184;51.902;12.836;2023-05-10T03:13:17;6.65;;;3.60;;
37299;SDS011;23184;51.902;12.836;2023-05-10T03:18:28;5.63;;;3.55;;
37299;SDS011;23184;51.902;12.836;2023-05-10T03:21:02;8.40;;;3.00;;
37299;SDS011;23184;51.902;12.836;2023-05-10T03:23:34;5.90;;;3.47;;
37299;SDS011;23184;51.902;12.836;2023-05-10T03:26:05;5.57;;;3.35;;
37299;SDS011;23184;51.902;12.836;2023-05-10T03:28:32;7.70;;;3.67;;
37299;SDS011;23184;51.902;12.836;2023-05-10T03:30:59;7.55;;;3.70;;
37299;SDS011;23184;51.902;12.836;2023-05-10T03:33:25;7.05;;;3.15;;
37299;SDS011;23184;51.902;12.836;2023-05-10T03:35:51;7.95;;;3.50;;
37299;SDS011;23184;51.902;12.836;2023-05-10T03:38:16;6.65;;;3.10;;
37299;SDS011;23184;51.902;12.836;2023-05-10T03:40:42;6.45;;;3.05;;
37299;SDS011;23184;51.902;12.836;2023-05-10T03:43:07;4.65;;;2.95;;
37299;SDS011;23184;51.902;12.836;2023-05-10T03:45:33;6.10;;;2.90;;
37299;SDS011;23184;51.902;12.836;2023-05-10T03:47:58;6.63;;;2.80;;
37299;SDS011;23184;51.902;12.836;2023-05-10T03:50:24;7.82;;;3.10;;
37299;SDS011;23184;51.902;12.836;2023-05-10T03:52:50;7.80;;;2.65;;
37299;SDS011;23184;51.902;12.836;2023-05-10T03:55:15;4.70;;;2.70;;
37299;SDS011;23184;51.902;12.836;2023-05-10T03:57:41;7.82;;;2.95;;
37299;SDS011;23184;51.902;12.836;2023-05-10T04:00:07;4.75;;;2.67;;
37299;SDS011;23184;51.902;12.836;2023-05-10T04:02:33;5.60;;;3.10;;
37299;SDS011;23184;51.902;12.836;2023-05-10T04:04:59;6.32;;;2.75;;
37299;SDS011;23184;51.902;12.836;2023-05-10T04:07:24;4.75;;;2.90;;
37299;SDS011;23184;51.902;12.836;2023-05-10T04:09:50;8.25;;;3.30;;
37299;SDS011;23184;51.902;12.836;2023-05-10T04:12:15;5.15;;;3.08;;
37299;SDS011;23184;51.902;12.836;2023-05-10T04:14:41;5.00;;;3.33;;
37299;SDS011;23184;51.902;12.836;2023-05-10T04:17:06;4.30;;;2.80;;
37299;SDS011;23184;51.902;12.836;2023-05-10T04:19:32;4.78;;;2.90;;
37299;SDS011;23184;51.902;12.836;2023-05-10T04:21:58;3.78;;;2.80;;
37299;SDS011;23184;51.902;12.836;2023-05-10T04:24:24;5.30;;;2.88;;
37299;SDS011;23184;51.902;12.836;2023-05-10T04:26:50;10.52;;;3.10;;
37299;SDS011;23184;51.902;12.836;2023-05-10T04:29:15;4.80;;;2.78;;
37299;SDS011;23184;51.902;12.836;2023-05-10T04:31:41;4.55;;;2.80;;
37299;SDS011;23184;51.902;12.836;2023-05-10T04:34:07;6.05;;;2.83;;
37299;SDS011;23184;51.902;12.836;2023-05-10T04:36:32;5.10;;;3.28;;
37299;SDS011;23184;51.902;12.836;2023-05-10T04:39:00;8.80;;;3.50;;
37299;SDS011;23184;51.902;12.836;2023-05-10T04:41:25;3.88;;;2.70;;
37299;SDS011;23184;51.902;12.836;2023-05-10T04:43:51;5.28;;;2.95;;
37299;SDS011;23184;51.902;12.836;2023-05-10T04:46:16;6.03;;;2.55;;
37299;SDS011;23184;51.902;12.836;2023-05-10T04:48:42;8.38;;;3.03;;
37299;SDS011;23184;51.902;12.836;2023-05-10T04:51:07;4.25;;;3.05;;
37299;SDS011;23184;51.902;12.836;2023-05-10T04:53:33;7.07;;;2.80;;
37299;SDS011;23184;51.902;12.836;2023-05-10T04:55:58;7.32;;;2.72;;
37299;SDS011;23184;51.902;12.836;2023-05-10T04:58:24;3.97;;;2.92;;
37299;SDS011;23184;51.902;12.836;2023-05-10T05:00:49;5.68;;;2.70;;
37299;SDS011;23184;51.902;12.836;2023-05-10T05:03:15;12.35;;;2.80;;
37299;SDS011;23184;51.902;12.836;2023-05-10T05:05:41;4.85;;;2.33;;
37299;SDS011;23184;51.902;12.836;2023-05-10T05:08:06;6.78;;;2.90;;
37299;SDS011;23184;51.902;12.836;2023-05-10T05:10:32;3.97;;;2.70;;
37299;SDS011;23184;51.902;12.836;2023-05-10T05:12:57;4.25;;;2.75;;
37299;SDS011;23184;51.902;12.836;2023-05-10T05:15:23;7.70;;;2.47;;
37299;SDS011;23184;51.902;12.836;2023-05-10T05:17:48;6.95;;;2.53;;
37299;SDS011;23184;51.902;12.836;2023-05-10T05:20:14;6.32;;;2.65;;
37299;SDS011;23184;51.902;12.836;2023-05-10T05:22:39;6.28;;;2.58;;
37299;SDS011;23184;51.902;12.836;2023-05-10T05:25:05;8.35;;;2.50;;
37299;SDS011;23184;51.902;12.836;2023-05-10T05:27:31;5.80;;;2.80;;
37299;SDS011;23184;51.902;12.836;2023-05-10T05:29:57;4.78;;;2.97;;
37299;SDS011;23184;51.902;12.836;2023-05-10T05:32:23;7.45;;;2.50;;
37299;SDS011;23184;51.902;12.836;2023-05-10T05:34:49;3.72;;;2.33;;
37299;SDS011;23184;51.902;12.836;2023-05-10T05:37:15;8.10;;;2.85;;
37299;SDS011;23184;51.902;12.836;2023-05-10T05:39:42;7.88;;;2.80;;
37299;SDS011;23184;51.902;12.836;2023-05-10T05:42:08;6.45;;;2.55;;
37299;SDS011;23184;51.902;12.836;2023-05-10T05:44:34;2.92;;;2.08;;
37299;SDS011;23184;51.902;12.836;2023-05-10T05:47:00;6.63;;;2.60;;
37299;SDS011;23184;51.902;12.836;2023-05-10T05:49:25;3.83;;;2.25;;
37299;SDS011;23184;51.902;12.836;2023-05-10T05:51:51;5.55;;;3.20;;
37299;SDS011;23184;51.902;12.836;2023-05-10T05:54:16;4.25;;;2.47;;
37299;SDS011;23184;51.902;12.836;2023-05-10T05:56:42;4.60;;;2.20;;
37299;SDS011;23184;51.902;12.836;2023-05-10T05:59:07;4.60;;;2.10;;
37299;SDS011;23184;51.902;12.836;2023-05-10T06:01:33;4.50;;;2.28;;
37299;SDS011;23184;51.902;12.836;2023-05-10T06:03:58;4.18;;;2.50;;
37299;SDS011;23184;51.902;12.836;2023-05-10T06:06:24;5.32;;;2.35;;
37299;SDS011;23184;51.902;12.836;2023-05-10T06:08:49;5.88;;;2.25;;
37299;SDS011;23184;51.902;12.836;2023-05-10T06:11:15;5.78;;;2.40;;
37299;SDS011;23184;51.902;12.836;2023-05-10T06:13:40;4.00;;;2.40;;
37299;SDS011;23184;51.902;12.836;2023-05-10T06:16:07;4.88;;;2.15;;
37299;SDS011;23184;51.902;12.836;2023-05-10T06:18:32;3.72;;;2.15;;
37299;SDS011;23184;51.902;12.836;2023-05-10T06:20:58;6.95;;;2.22;;
37299;SDS011;23184;51.902;12.836;2023-05-10T06:23:23;4.57;;;2.17;;
37299;SDS011;23184;51.902;12.836;2023-05-10T06:25:50;5.32;;;2.42;;
37299;SDS011;23184;51.902;12.836;2023-05-10T06:28:16;3.55;;;2.13;;
37299;SDS011;23184;51.902;12.836;2023-05-10T06:30:41;3.13;;;1.95;;
37299;SDS011;23184;51.902;12.836;2023-05-10T06:33:07;2.80;;;2.20;;
37299;SDS011;23184;51.902;12.836;2023-05-10T06:35:33;3.33;;;2.10;;
37299;SDS011;23184;51.902;12.836;2023-05-10T06:37:58;4.78;;;2.30;;
37299;SDS011;23184;51.902;12.836;2023-05-10T06:40:24;5.45;;;2.50;;
37299;SDS011;23184;51.902;12.836;2023-05-10T06:42:49;5.05;;;2.65;;
37299;SDS011;23184;51.902;12.836;2023-05-10T06:45:15;2.88;;;1.98;;
37299;SDS011;23184;51.902;12.836;2023-05-10T06:47:41;10.02;;;2.53;;
37299;SDS011;23184;51.902;12.836;2023-05-10T06:50:07;3.75;;;2.30;;
37299;SDS011;23184;51.902;12.836;2023-05-10T06:52:33;2.72;;;2.13;;
37299;SDS011;23184;51.902;12.836;2023-05-10T06:54:59;7.32;;;2.20;;
37299;SDS011;23184;51.902;12.836;2023-05-10T06:57:25;7.65;;;1.95;;
37299;SDS011;23184;51.902;12.836;2023-05-10T06:59:51;3.30;;;2.40;;
37299;SDS011;23184;51.902;12.836;2023-05-10T07:02:17;3.85;;;2.33;;
37299;SDS011;23184;51.902;12.836;2023-05-10T07:04:42;6.80;;;2.53;;
37299;SDS011;23184;51.902;12.836;2023-05-10T07:07:08;5.07;;;2.33;;
37299;SDS011;23184;51.902;12.836;2023-05-10T07:09:33;4.55;;;2.10;;
37299;SDS011;23184;51.902;12.836;2023-05-10T07:11:59;6.03;;;1.90;;
37299;SDS011;23184;51.902;12.836;2023-05-10T07:14:24;3.67;;;2.20;;
37299;SDS011;23184;51.902;12.836;2023-05-10T07:16:50;3.78;;;1.70;;
37299;SDS011;23184;51.902;12.836;2023-05-10T07:19:15;7.57;;;2.15;;
37299;SDS011;23184;51.902;12.836;2023-05-10T07:21:41;6.13;;;1.90;;
37299;SDS011;23184;51.902;12.836;2023-05-10T07:24:08;3.38;;;2.17;;
37299;SDS011;23184;51.902;12.836;2023-05-10T07:26:33;3.22;;;2.03;;
37299;SDS011;23184;51.902;12.836;2023-05-10T07:28:59;3.78;;;2.20;;
37299;SDS011;23184;51.902;12.836;2023-05-10T07:31:24;4.10;;;2.40;;
37299;SDS011;23184;51.902;12.836;2023-05-10T07:33:50;3.38;;;2.20;;
37299;SDS011;23184;51.902;12.836;2023-05-10T07:36:15;2.65;;;2.00;;
37299;SDS011;23184;51.902;12.836;2023-05-10T07:38:41;5.30;;;2.13;;
37299;SDS011;23184;51.902;12.836;2023-05-10T07:41:06;5.95;;;2.17;;
37299;SDS011;23184;51.902;12.836;2023-05-10T07:43:32;4.95;;;1.90;;
37299;SDS011;23184;51.902;12.836;2023-05-10T07:45:57;3.75;;;2.10;;
37299;SDS011;23184;51.902;12.836;2023-05-10T07:48:24;2.88;;;2.25;;
37299;SDS011;23184;51.902;12.836;2023-05-10T07:50:50;7.20;;;2.40;;
37299;SDS011;23184;51.902;12.836;2023-05-10T07:53:16;7.82;;;2.10;;
37299;SDS011;23184;51.902;12.836;2023-05-10T07:55:42;4.43;;;2.58;;
37299;SDS011;23184;51.902;12.836;2023-05-10T07:58:07;4.88;;;2.38;;
37299;SDS011;23184;51.902;12.836;2023-05-10T08:00:33;4.03;;;2.17;;
37299;SDS011;23184;51.902;12.836;2023-05-10T08:02:59;6.75;;;2.30;;
37299;SDS011;23184;51.902;12.836;2023-05-10T08:05:24;5.50;;;2.50;;
37299;SDS011;23184;51.902;12.836;2023-05-10T08:07:50;5.78;;;2.42;;
37299;SDS011;23184;51.902;12.836;2023-05-10T08:10:15;5.68;;;2.30;;
37299;SDS011;23184;51.902;12.836;2023-05-10T08:12:41;3.90;;;2.10;;
37299;SDS011;23184;51.902;12.836;2023-05-10T08:15:07;7.80;;;2.97;;
37299;SDS011;23184;51.902;12.836;2023-05-10T08:17:33;4.43;;;2.30;;
37299;SDS011;23184;51.902;12.836;2023-05-10T08:19:59;4.90;;;2.30;;
37299;SDS011;23184;51.902;12.836;2023-05-10T08:22:24;2.75;;;2.40;;
37299;SDS011;23184;51.902;12.836;2023-05-10T08:24:50;4.43;;;2.75;;
37299;SDS011;23184;51.902;12.836;2023-05-10T08:27:15;6.68;;;2.58;;
37299;SDS011;23184;51.902;12.836;2023-05-10T08:29:41;7.55;;;2.97;;
37299;SDS011;23184;51.902;12.836;2023-05-10T08:32:06;5.45;;;3.17;;
37299;SDS011;23184;51.902;12.836;2023-05-10T08:34:32;6.97;;;2.97;;
37299;SDS011;23184;51.902;12.836;2023-05-10T08:36:57;5.55;;;3.10;;
37299;SDS011;23184;51.902;12.836;2023-05-10T08:39:23;7.90;;;3.38;;
37299;SDS011;23184;51.902;12.836;2023-05-10T08:41:48;4.45;;;3.40;;
37299;SDS011;23184;51.902;12.836;2023-05-10T08:44:16;5.63;;;3.17;;
37299;SDS011;23184;51.902;12.836;2023-05-10T08:46:43;3.58;;;2.50;;
37299;SDS011;23184;51.902;12.836;2023-05-10T08:49:12;8.05;;;3.40;;
37299;SDS011;23184;51.902;12.836;2023-05-10T08:51:42;6.95;;;3.20;;
37299;SDS011;23184;51.902;12.836;2023-05-10T08:54:11;10.63;;;3.78;;
37299;SDS011;23184;51.902;12.836;2023-05-10T08:56:38;5.72;;;3.65;;
37299;SDS011;23184;51.902;12.836;2023-05-10T08:59:04;4.00;;;3.10;;
37299;SDS011;23184;51.902;12.836;2023-05-10T09:01:29;5.30;;;3.95;;
37299;SDS011;23184;51.902;12.836;2023-05-10T09:03:56;5.15;;;3.42;;
37299;SDS011;23184;51.902;12.836;2023-05-10T09:06:22;4.50;;;3.35;;
37299;SDS011;23184;51.902;12.836;2023-05-10T09:08:48;7.40;;;3.10;;
37299;SDS011;23184;51.902;12.836;2023-05-10T09:11:14;5.93;;;3.35;;
37299;SDS011;23184;51.902;12.836;2023-05-10T09:13:40;5.15;;;3.58;;
37299;SDS011;23184;51.902;12.836;2023-05-10T09:16:07;6.28;;;3.17;;
37299;SDS011;23184;51.902;12.836;2023-05-10T09:18:32;8.73;;;3.90;;
37299;SDS011;23184;51.902;12.836;2023-05-10T09:20:58;7.53;;;3.72;;
37299;SDS011;23184;51.902;12.836;2023-05-10T09:23:23;9.18;;;3.83;;
37299;SDS011;23184;51.902;12.836;2023-05-10T09:26:05;7.75;;;3.83;;
37299;SDS011;23184;51.902;12.836;2023-05-10T09:28:31;6.43;;;3.58;;
37299;SDS011;23184;51.902;12.836;2023-05-10T09:31:15;8.00;;;4.40;;
37299;SDS011;23184;51.902;12.836;2023-05-10T09:33:44;6.75;;;3.80;;
37299;SDS011;23184;51.902;12.836;2023-05-10T09:36:11;7.97;;;3.92;;
37299;SDS011;23184;51.902;12.836;2023-05-10T09:41:19;5.00;;;3.47;;
37299;SDS011;23184;51.902;12.836;2023-05-10T09:43:46;11.45;;;4.00;;
37299;SDS011;23184;51.902;12.836;2023-05-10T09:46:12;6.90;;;3.75;;
37299;SDS011;23184;51.902;12.836;2023-05-10T09:48:40;6.32;;;4.18;;
37299;SDS011;23184;51.902;12.836;2023-05-10T09:51:08;9.40;;;3.53;;
37299;SDS011;23184;51.902;12.836;2023-05-10T09:53:35;5.57;;;3.50;;
37299;SDS011;23184;51.902;12.836;2023-05-10T09:56:01;7.07;;;3.90;;
37299;SDS011;23184;51.902;12.836;2023-05-10T09:58:26;9.13;;;4.10;;
37299;SDS011;23184;51.902;12.836;2023-05-10T10:00:52;7.25;;;4.00;;
37299;SDS011;23184;51.902;12.836;2023-05-10T10:03:19;5.57;;;4.18;;
37299;SDS011;23184;51.902;12.836;2023-05-10T10:05:46;7.60;;;4.25;;
37299;SDS011;23184;51.902;12.836;2023-05-10T10:08:13;5.38;;;4.03;;
37299;SDS011;23184;51.902;12.836;2023-05-10T10:10:40;14.18;;;4.78;;
37299;SDS011;23184;51.902;12.836;2023-05-10T10:13:06;5.60;;;4.28;;
37299;SDS011;23184;51.902;12.836;2023-05-10T10:15:32;7.10;;;4.57;;
37299;SDS011;23184;51.902;12.836;2023-05-10T10:17:59;4.30;;;3.47;;
37299;SDS011;23184;51.902;12.836;2023-05-10T10:20:25;5.57;;;4.10;;
37299;SDS011;23184;51.902;12.836;2023-05-10T10:22:52;7.03;;;4.30;;
37299;SDS011;23184;51.902;12.836;2023-05-10T10:25:18;9.25;;;4.25;;
37299;SDS011;23184;51.902;12.836;2023-05-10T10:30:39;8.25;;;3.80;;
37299;SDS011;23184;51.902;12.836;2023-05-10T10:33:23;6.80;;;4.10;;
37299;SDS011;23184;51.902;12.836;2023-05-10T10:35:58;8.35;;;4.45;;
37299;SDS011;23184;51.902;12.836;2023-05-10T10:38:25;6.28;;;4.18;;
37299;SDS011;23184;51.902;12.836;2023-05-10T10:41:10;6.78;;;4.03;;
37299;SDS011;23184;51.902;12.836;2023-05-10T10:43:36;5.32;;;4.00;;
37299;SDS011;23184;51.902;12.836;2023-05-10T10:46:12;6.28;;;3.90;;
37299;SDS011;23184;51.902;12.836;2023-05-10T10:48:43;6.28;;;4.00;;
37299;SDS011;23184;51.902;12.836;2023-05-10T10:51:14;7.65;;;3.92;;
37299;SDS011;23184;51.902;12.836;2023-05-10T10:53:40;7.53;;;4.50;;
37299;SDS011;23184;51.902;12.836;2023-05-10T10:56:06;9.10;;;4.65;;
37299;SDS011;23184;51.902;12.836;2023-05-10T10:58:34;8.73;;;4.53;;
37299;SDS011;23184;51.902;12.836;2023-05-10T11:01:13;6.28;;;3.95;;
37299;SDS011;23184;51.902;12.836;2023-05-10T11:03:41;7.85;;;5.18;;
37299;SDS011;23184;51.902;12.836;2023-05-10T11:06:28;7.53;;;4.35;;
37299;SDS011;23184;51.902;12.836;2023-05-10T11:08:58;5.72;;;4.10;;
37299;SDS011;23184;51.902;12.836;2023-05-10T11:11:43;10.07;;;3.97;;
37299;SDS011;23184;51.902;12.836;2023-05-10T11:14:17;8.98;;;4.57;;
37299;SDS011;23184;51.902;12.836;2023-05-10T11:16:45;7.43;;;4.47;;
37299;SDS011;23184;51.902;12.836;2023-05-10T11:19:12;6.88;;;4.32;;
37299;SDS011;23184;51.902;12.836;2023-05-10T11:24:15;6.00;;;4.55;;
37299;SDS011;23184;51.902;12.836;2023-05-10T11:26:42;5.85;;;4.00;;
37299;SDS011;23184;51.902;12.836;2023-05-10T11:29:08;6.95;;;3.88;;
37299;SDS011;23184;51.902;12.836;2023-05-10T11:31:34;9.18;;;4.43;;
37299;SDS011;23184;51.902;12.836;2023-05-10T11:34:00;6.60;;;4.00;;
37299;SDS011;23184;51.902;12.836;2023-05-10T11:36:32;10.43;;;4.22;;
37299;SDS011;23184;51.902;12.836;2023-05-10T11:38:58;8.32;;;4.28;;
37299;SDS011;23184;51.902;12.836;2023-05-10T11:41:24;7.97;;;4.32;;
37299;SDS011;23184;51.902;12.836;2023-05-10T11:43:54;7.82;;;4.60;;
37299;SDS011;23184;51.902;12.836;2023-05-10T11:46:21;9.10;;;4.35;;
37299;SDS011;23184;51.902;12.836;2023-05-10T11:48:49;6.32;;;4.53;;
37299;SDS011;23184;51.902;12.836;2023-05-10T11:51:19;7.60;;;4.45;;
37299;SDS011;23184;51.902;12.836;2023-05-10T11:53:45;7.63;;;4.22;;
37299;SDS011;23184;51.902;12.836;2023-05-10T11:56:11;5.35;;;4.60;;
37299;SDS011;23184;51.902;12.836;2023-05-10T11:58:37;8.38;;;4.50;;
37299;SDS011;23184;51.902;12.836;2023-05-10T12:01:04;7.18;;;5.53;;
37299;SDS011;23184;51.902;12.836;2023-05-10T12:03:32;8.43;;;4.85;;
37299;SDS011;23184;51.902;12.836;2023-05-10T12:05:58;11.35;;;5.53;;
37299;SDS011;23184;51.902;12.836;2023-05-10T12:08:26;11.00;;;5.38;;
37299;SDS011;23184;51.902;12.836;2023-05-10T12:10:53;10.98;;;5.18;;
37299;SDS011;23184;51.902;12.836;2023-05-10T12:13:28;7.18;;;4.53;;
37299;SDS011;23184;51.902;12.836;2023-05-10T12:15:54;7.18;;;4.80;;
37299;SDS011;23184;51.902;12.836;2023-05-10T12:18:23;7.10;;;4.95;;
37299;SDS011;23184;51.902;12.836;2023-05-10T12:20:52;11.95;;;4.93;;
37299;SDS011;23184;51.902;12.836;2023-05-10T12:23:18;8.35;;;5.43;;
37299;SDS011;23184;51.902;12.836;2023-05-10T12:25:45;7.82;;;4.55;;
37299;SDS011;23184;51.902;12.836;2023-05-10T12:28:11;8.05;;;5.00;;
37299;SDS011;23184;51.902;12.836;2023-05-10T12:30:37;7.53;;;4.70;;
37299;SDS011;23184;51.902;12.836;2023-05-10T12:35:32;8.07;;;4.97;;
37299;SDS011;23184;51.902;12.836;2023-05-10T12:37:58;6.45;;;5.25;;
37299;SDS011;23184;51.902;12.836;2023-05-10T12:40:23;5.63;;;4.68;;
37299;SDS011;23184;51.902;12.836;2023-05-10T12:42:49;7.38;;;4.40;;
37299;SDS011;23184;51.902;12.836;2023-05-10T12:45:15;7.82;;;4.45;;
37299;SDS011;23184;51.902;12.836;2023-05-10T12:47:42;9.10;;;4.78;;
37299;SDS011;23184;51.902;12.836;2023-05-10T12:50:08;11.48;;;4.60;;
37299;SDS011;23184;51.902;12.836;2023-05-10T12:52:34;9.65;;;4.70;;
37299;SDS011;23184;51.902;12.836;2023-05-10T12:55:00;6.85;;;4.60;;
37299;SDS011;23184;51.902;12.836;2023-05-10T12:57:25;6.38;;;4.65;;
37299;SDS011;23184;51.902;12.836;2023-05-10T12:59:52;9.77;;;4.78;;
37299;SDS011;23184;51.902;12.836;2023-05-10T13:02:17;11.60;;;4.82;;
37299;SDS011;23184;51.902;12.836;2023-05-10T13:04:43;8.45;;;4.28;;
37299;SDS011;23184;51.902;12.836;2023-05-10T13:07:09;8.00;;;5.32;;
37299;SDS011;23184;51.902;12.836;2023-05-10T13:09:35;6.13;;;4.35;;
37299;SDS011;23184;51.902;12.836;2023-05-10T13:12:01;10.70;;;5.15;;
37299;SDS011;23184;51.902;12.836;2023-05-10T13:14:26;6.68;;;4.80;;
37299;SDS011;23184;51.902;12.836;2023-05-10T13:16:52;8.68;;;5.10;;
37299;SDS011;23184;51.902;12.836;2023-05-10T13:19:18;6.75;;;4.50;;
37299;SDS011;23184;51.902;12.836;2023-05-10T13:21:44;6.63;;;4.82;;
37299;SDS011;23184;51.902;12.836;2023-05-10T13:24:10;7.95;;;5.32;;
37299;SDS011;23184;51.902;12.836;2023-05-10T13:26:38;9.35;;;5.35;;
37299;SDS011;23184;51.902;12.836;2023-05-10T13:29:05;8.77;;;5.18;;
37299;SDS011;23184;51.902;12.836;2023-05-10T13:31:30;9.23;;;5.15;;
37299;SDS011;23184;51.902;12.836;2023-05-10T13:33:56;6.82;;;4.95;;
37299;SDS011;23184;51.902;12.836;2023-05-10T13:36:21;8.23;;;4.65;;
37299;SDS011;23184;51.902;12.836;2023-05-10T13:38:47;9.07;;;5.35;;
37299;SDS011;23184;51.902;12.836;2023-05-10T13:41:13;5.07;;;4.53;;
37299;SDS011;23184;51.902;12.836;2023-05-10T13:43:38;6.57;;;4.10;;
37299;SDS011;23184;51.902;12.836;2023-05-10T13:46:04;5.43;;;4.20;;
37299;SDS011;23184;51.902;12.836;2023-05-10T13:48:29;5.72;;;3.80;;
37299;SDS011;23184;51.902;12.836;2023-05-10T13:50:55;3.67;;;3.20;;
37299;SDS011;23184;51.902;12.836;2023-05-10T13:53:21;4.57;;;2.90;;
37299;SDS011;23184;51.902;12.836;2023-05-10T13:55:46;3.45;;;2.85;;
37299;SDS011;23184;51.902;12.836;2023-05-10T13:58:12;6.00;;;2.88;;
37299;SDS011;23184;51.902;12.836;2023-05-10T14:00:37;4.32;;;2.90;;
37299;SDS011;23184;51.902;12.836;2023-05-10T14:03:03;3.03;;;2.72;;
37299;SDS011;23184;51.902;12.836;2023-05-10T14:05:30;8.07;;;3.05;;
37299;SDS011;23184;51.902;12.836;2023-05-10T14:07:55;4.00;;;2.50;;
37299;SDS011;23184;51.902;12.836;2023-05-10T14:10:21;8.07;;;3.40;;
37299;SDS011;23184;51.902;12.836;2023-05-10T14:12:46;3.53;;;2.75;;
37299;SDS011;23184;51.902;12.836;2023-05-10T14:15:12;5.88;;;2.47;;
37299;SDS011;23184;51.902;12.836;2023-05-10T14:17:38;3.60;;;2.60;;
37299;SDS011;23184;51.902;12.836;2023-05-10T14:20:03;3.05;;;2.60;;
37299;SDS011;23184;51.902;12.836;2023-05-10T14:22:29;4.18;;;2.83;;
37299;SDS011;23184;51.902;12.836;2023-05-10T14:24:55;4.95;;;2.75;;
37299;SDS011;23184;51.902;12.836;2023-05-10T14:27:20;2.97;;;2.70;;
37299;SDS011;23184;51.902;12.836;2023-05-10T14:29:46;3.95;;;2.78;;
37299;SDS011;23184;51.902;12.836;2023-05-10T14:32:12;3.83;;;2.40;;
37299;SDS011;23184;51.902;12.836;2023-05-10T14:34:38;3.50;;;2.53;;
37299;SDS011;23184;51.902;12.836;2023-05-10T14:37:03;6.00;;;2.78;;
37299;SDS011;23184;51.902;12.836;2023-05-10T14:39:29;3.17;;;2.55;;
37299;SDS011;23184;51.902;12.836;2023-05-10T14:41:55;6.38;;;2.67;;
37299;SDS011;23184;51.902;12.836;2023-05-10T14:44:20;6.05;;;2.83;;
37299;SDS011;23184;51.902;12.836;2023-05-10T14:46:46;3.95;;;2.45;;
37299;SDS011;23184;51.902;12.836;2023-05-10T14:49:12;7.50;;;3.33;;
37299;SDS011;23184;51.902;12.836;2023-05-10T14:51:37;10.20;;;2.47;;
37299;SDS011;23184;51.902;12.836;2023-05-10T14:54:03;13.13;;;4.22;;
37299;SDS011;23184;51.902;12.836;2023-05-10T14:56:28;3.08;;;2.40;;
37299;SDS011;23184;51.902;12.836;2023-05-10T14:58:54;3.47;;;2.60;;
37299;SDS011;23184;51.902;12.836;2023-05-10T15:01:19;4.93;;;2.60;;
37299;SDS011;23184;51.902;12.836;2023-05-10T15:03:45;2.97;;;2.50;;
37299;SDS011;23184;51.902;12.836;2023-05-10T15:06:13;3.30;;;2.70;;